sensor_id;sensor_type;location;lat;lon;timestamp;P1;durP1;ratioP1;P2;durP2;ratioP2
26177;SDS011;13924;47.670;10.310;2024-03-02T00:00:40;65.1;;;20.8;;
26177;SDS011;13924;47.670;10.310;2024-03-02T00:15:41;86.6;;;22.6;;
26177;SDS011;13924;47.670;10.310;2024-03-02T00:30:51;94.3;;;22.7;;
26177;SDS011;13924;47.670;10.310;2024-03-02T00:45:40;207.4;;;24.6;;
26177;SDS011;13924;47.670;10.310;2024-03-02T01:00:39;155.6;;;36.9;;
26177;SDS011;13924;47.670;10.310;2024-03-02T01:15:43;41.9;;;24.4;;
26177;SDS011;13924;47.670;10.310;2024-03-02T01:30:41;34.1;;;20.8;;
26177;SDS011;13924;47.670;10.310;2024-03-02T01:45:41;41.4;;;22.1;;
26177;SDS011;13924;47.670;10.310;2024-03-02T02:00:42;37.9;;;20.6;;
26177;SDS011;13924;47.670;10.310;2024-03-02T02:01:27;35.7;;;22.3;;
26177;SDS011;13924;47.670;10.310;2024-03-02T02:15:47;39.5;;;23.6;;
26177;SDS011;13924;47.670;10.310;2024-03-02T02:30:43;40.0;;;23.8;;
26177;SDS011;13924;47.670;10.310;2024-03-02T02:45:45;78.5;;;20.8;;
26177;SDS011;13924;47.670;10.310;2024-03-02T03:00:44;44.6;;;19.9;;
26177;SDS011;13924;47.670;10.310;2024-03-02T03:15:45;35.9;;;21.2;;
26177;SDS011;13924;47.670;10.310;2024-03-02T03:30:46;42.4;;;24.8;;
26177;SDS011;13924;47.670;10.310;2024-03-02T03:45:47;40.9;;;23.4;;
26177;SDS011;13924;47.670;10.310;2024-03-02T04:00:47;33.4;;;20.7;;
26177;SDS011;13924;47.670;10.310;2024-03-02T04:15:48;36.1;;;20.3;;
26177;SDS011;13924;47.670;10.310;2024-03-02T04:30:49;38.9;;;21.6;;
26177;SDS011;13924;47.670;10.310;2024-03-02T04:45:49;40.6;;;22.5;;
26177;SDS011;13924;47.670;10.310;2024-03-02T05:00:50;37.3;;;21.3;;
26177;SDS011;13924;47.670;10.310;2024-03-02T05:15:50;39.0;;;21.1;;
26177;SDS011;13924;47.670;10.310;2024-03-02T05:30:51;29.4;;;18.6;;
26177;SDS011;13924;47.670;10.310;2024-03-02T05:45:51;30.9;;;18.3;;
26177;SDS011;13924;47.670;10.310;2024-03-02T06:00:15;25.8;;;16.2;;
26177;SDS011;13924;47.670;10.310;2024-03-02T06:15:18;26.7;;;15.3;;
26177;SDS011;13924;47.670;10.310;2024-03-02T06:30:16;29.1;;;16.8;;
26177;SDS011;13924;47.670;10.310;2024-03-02T06:45:19;58.4;;;26.4;;
26177;SDS011;13924;47.670;10.310;2024-03-02T07:00:17;32.0;;;18.7;;
26177;SDS011;13924;47.670;10.310;2024-03-02T07:15:21;42.3;;;17.7;;
26177;SDS011;13924;47.670;10.310;2024-03-02T07:30:18;15.9;;;11.6;;
26177;SDS011;13924;47.670;10.310;2024-03-02T07:45:19;12.9;;;9.7;;
26177;SDS011;13924;47.670;10.310;2024-03-02T08:00:22;30.8;;;13.6;;
26177;SDS011;13924;47.670;10.310;2024-03-02T08:15:21;8.5;;;6.5;;
26177;SDS011;13924;47.670;10.310;2024-03-02T08:30:22;4.3;;;3.0;;
26177;SDS011;13924;47.670;10.310;2024-03-02T08:45:32;6.3;;;2.9;;
26177;SDS011;13924;47.670;10.310;2024-03-02T09:00:25;3.1;;;2.3;;
26177;SDS011;13924;47.670;10.310;2024-03-02T09:15:27;2.6;;;1.9;;
26177;SDS011;13924;47.670;10.310;2024-03-02T09:30:27;1.2;;;1.0;;
26177;SDS011;13924;47.670;10.310;2024-03-02T09:45:28;1.2;;;0.9;;
26177;SDS011;13924;47.670;10.310;2024-03-02T10:00:30;2.0;;;1.0;;
26177;SDS011;13924;47.670;10.310;2024-03-02T10:15:37;2.1;;;0.7;;
26177;SDS011;13924;47.670;10.310;2024-03-02T10:30:30;3.3;;;2.7;;
26177;SDS011;13924;47.670;10.310;2024-03-02T10:45:31;0.3;;;0.3;;
26177;SDS011;13924;47.670;10.310;2024-03-02T11:00:34;5.5;;;3.3;;
26177;SDS011;13924;47.670;10.310;2024-03-02T11:15:34;0.7;;;0.4;;
26177;SDS011;13924;47.670;10.310;2024-03-02T11:30:51;5.7;;;4.4;;
26177;SDS011;13924;47.670;10.310;2024-03-02T11:45:42;1.0;;;0.5;;
26177;SDS011;13924;47.670;10.310;2024-03-02T12:00:54;0.5;;;0.5;;
26177;SDS011;13924;47.670;10.310;2024-03-02T12:15:38;0.9;;;0.5;;
26177;SDS011;13924;47.670;10.310;2024-03-02T12:30:37;1.0;;;0.7;;
26177;SDS011;13924;47.670;10.310;2024-03-02T12:45:43;2.1;;;0.9;;
26177;SDS011;13924;47.670;10.310;2024-03-02T13:00:38;0.8;;;0.8;;
26177;SDS011;13924;47.670;10.310;2024-03-02T13:15:39;0.8;;;0.7;;
26177;SDS011;13924;47.670;10.310;2024-03-02T13:30:40;17.6;;;12.4;;
26177;SDS011;13924;47.670;10.310;2024-03-02T13:45:44;2.2;;;0.9;;
26177;SDS011;13924;47.670;10.310;2024-03-02T14:00:41;2.1;;;0.8;;
26177;SDS011;13924;47.670;10.310;2024-03-02T14:15:48;10.4;;;8.1;;
26177;SDS011;13924;47.670;10.310;2024-03-02T14:30:41;8.6;;;5.1;;
26177;SDS011;13924;47.670;10.310;2024-03-02T14:45:45;2.1;;;1.9;;
26177;SDS011;13924;47.670;10.310;2024-03-02T15:00:44;4.9;;;4.4;;
26177;SDS011;13924;47.670;10.310;2024-03-02T15:15:43;4.8;;;3.2;;
26177;SDS011;13924;47.670;10.310;2024-03-02T15:30:45;8.1;;;6.6;;
26177;SDS011;13924;47.670;10.310;2024-03-02T15:45:47;4.1;;;3.7;;
26177;SDS011;13924;47.670;10.310;2024-03-02T16:00:46;4.0;;;3.6;;
26177;SDS011;13924;47.670;10.310;2024-03-02T16:15:46;4.1;;;3.4;;
26177;SDS011;13924;47.670;10.310;2024-03-02T16:30:47;6.0;;;3.8;;
26177;SDS011;13924;47.670;10.310;2024-03-02T16:45:47;5.9;;;4.1;;
26177;SDS011;13924;47.670;10.310;2024-03-02T17:00:48;8.2;;;5.6;;
26177;SDS011;13924;47.670;10.310;2024-03-02T17:15:49;9.2;;;6.8;;
26177;SDS011;13924;47.670;10.310;2024-03-02T17:30:50;12.2;;;9.1;;
26177;SDS011;13924;47.670;10.310;2024-03-02T17:45:51;13.5;;;9.4;;
26177;SDS011;13924;47.670;10.310;2024-03-02T18:00:50;16.5;;;9.6;;
26177;SDS011;13924;47.670;10.310;2024-03-02T18:15:51;41.6;;;23.6;;
26177;SDS011;13924;47.670;10.310;2024-03-02T18:30:53;19.6;;;12.5;;
26177;SDS011;13924;47.670;10.310;2024-03-02T18:45:53;15.6;;;10.6;;
26177;SDS011;13924;47.670;10.310;2024-03-02T19:00:54;28.6;;;22.3;;
26177;SDS011;13924;47.670;10.310;2024-03-02T19:15:53;19.5;;;12.0;;
26177;SDS011;13924;47.670;10.310;2024-03-02T19:30:54;21.8;;;12.0;;
26177;SDS011;13924;47.670;10.310;2024-03-02T19:45:55;45.0;;;20.9;;
26177;SDS011;13924;47.670;10.310;2024-03-02T20:00:55;22.5;;;13.5;;
26177;SDS011;13924;47.670;10.310;2024-03-02T20:15:58;72.6;;;39.3;;
26177;SDS011;13924;47.670;10.310;2024-03-02T20:30:56;34.5;;;19.6;;
26177;SDS011;13924;47.670;10.310;2024-03-02T20:45:59;20.3;;;13.4;;
26177;SDS011;13924;47.670;10.310;2024-03-02T21:01:00;15.0;;;11.0;;
26177;SDS011;13924;47.670;10.310;2024-03-02T21:16:00;20.0;;;14.2;;
26177;SDS011;13924;47.670;10.310;2024-03-02T21:30:59;19.4;;;13.9;;
26177;SDS011;13924;47.670;10.310;2024-03-02T21:46:00;13.8;;;8.9;;
26177;SDS011;13924;47.670;10.310;2024-03-02T22:01:00;13.6;;;10.3;;
26177;SDS011;13924;47.670;10.310;2024-03-02T22:16:03;6.9;;;5.9;;
26177;SDS011;13924;47.670;10.310;2024-03-02T22:31:03;6.5;;;5.1;;
26177;SDS011;13924;47.670;10.310;2024-03-02T22:46:03;7.9;;;6.8;;
26177;SDS011;13924;47.670;10.310;2024-03-02T23:00:35;8.9;;;6.4;;
26177;SDS011;13924;47.670;10.310;2024-03-02T23:15:37;17.2;;;8.1;;
26177;SDS011;13924;47.670;10.310;2024-03-02T23:30:38;6.7;;;5.2;;
26177;SDS011;13924;47.670;10.310;2024-03-02T23:45:38;9.7;;;6.0;;
